createdAt,value
2022-09-21T00:04:33.867Z,101213.00
2022-09-21T00:09:31.007Z,101187.94
2022-09-21T00:15:28.733Z,101116.06
2022-09-21T00:20:27.633Z,101248.59
2022-09-21T00:25:24.684Z,101191.81
2022-09-21T00:30:22.840Z,101194.38
2022-09-21T00:35:20.047Z,101224.31
2022-09-21T00:40:17.930Z,101247.56
2022-09-21T00:45:22.484Z,101267.63
2022-09-21T00:50:31.511Z,101239.00
2022-09-21T00:55:32.922Z,101158.66
2022-09-21T01:00:49.369Z,101188.69
2022-09-21T01:05:49.190Z,101271.84
2022-09-21T01:17:02.291Z,101274.41
2022-09-21T01:22:11.174Z,101164.88
2022-09-21T01:27:43.976Z,101223.28
2022-09-21T01:32:46.678Z,101219.03
2022-09-21T01:37:47.798Z,101215.50
2022-09-21T01:42:46.629Z,101264.66
2022-09-21T01:47:50.764Z,101228.81
2022-09-21T01:53:02.044Z,101263.13
2022-09-21T01:58:11.483Z,101253.22
2022-09-21T02:03:16.067Z,101239.94
2022-09-21T02:08:13.418Z,101169.84
2022-09-21T02:13:13.795Z,101269.00
2022-09-21T02:18:21.467Z,101195.59
2022-09-21T02:23:23.918Z,101271.22
2022-09-21T02:28:34.757Z,101269.59
2022-09-21T02:33:40.577Z,101243.44
2022-09-21T02:38:47.695Z,101218.00
2022-09-21T02:43:51.326Z,101173.53
2022-09-21T02:48:56.449Z,101239.19
2022-09-21T02:53:55.425Z,101199.34
2022-09-21T02:58:55.281Z,101207.38
2022-09-21T03:03:53.062Z,101168.72
2022-09-21T03:08:50.644Z,101265.59
2022-09-21T03:13:52.517Z,101212.41
2022-09-21T03:19:04.118Z,101255.81
2022-09-21T03:24:02.075Z,101215.16
2022-09-21T03:28:59.442Z,101242.75
2022-09-21T03:33:57.135Z,101281.44
2022-09-21T03:38:57.514Z,101288.06
2022-09-21T03:43:54.600Z,101282.66
2022-09-21T03:48:56.722Z,101172.66
2022-09-21T03:53:55.325Z,101231.88
2022-09-21T03:58:55.387Z,101252.75
2022-09-21T04:03:55.823Z,101290.69
2022-09-21T04:08:54.175Z,101286.34
2022-09-21T04:13:57.507Z,101288.03
2022-09-21T04:18:56.118Z,101286.97
2022-09-21T04:24:03.403Z,101190.94
2022-09-21T04:29:25.394Z,101285.41
2022-09-21T04:35:40.053Z,101167.09
2022-09-21T04:46:41.049Z,101299.94
2022-09-21T04:51:51.196Z,101304.66
2022-09-21T04:56:53.993Z,101319.84
2022-09-21T05:02:11.278Z,101290.88
2022-09-21T05:08:23.192Z,101280.97
2022-09-21T05:13:27.842Z,101297.97
2022-09-21T05:18:36.271Z,101328.75
2022-09-21T05:23:44.825Z,101291.63
2022-09-21T05:29:09.276Z,101192.56
2022-09-21T05:34:49.378Z,101258.63
2022-09-21T05:40:07.056Z,101330.88
2022-09-21T05:45:05.813Z,101294.81
2022-09-21T05:50:25.712Z,101285.06
2022-09-21T05:55:34.189Z,101281.28
2022-09-21T06:00:45.372Z,101299.31
2022-09-21T06:05:59.802Z,101223.16
2022-09-21T06:11:25.182Z,101327.97
2022-09-21T06:16:27.367Z,101290.84
2022-09-21T06:27:20.651Z,101330.91
2022-09-21T06:32:39.967Z,101267.88
2022-09-21T06:37:44.856Z,101286.84
2022-09-21T06:43:42.816Z,101285.41
2022-09-21T06:50:03.500Z,101333.50
2022-09-21T07:59:57.806Z,101315.31
2022-09-21T08:05:08.811Z,101271.97
2022-09-21T08:10:25.435Z,101271.47
2022-09-21T08:15:46.704Z,101319.72
2022-09-21T08:20:57.690Z,101266.25
2022-09-21T08:26:09.660Z,101248.13
2022-09-21T08:32:00.631Z,101288.03
2022-09-21T08:37:37.810Z,101245.38
2022-09-21T08:42:55.120Z,101303.09
2022-09-21T08:48:05.843Z,101243.94
2022-09-21T08:53:07.784Z,101262.44
2022-09-21T08:58:24.589Z,101298.16
2022-09-21T09:04:08.401Z,101301.75
2022-09-21T09:09:59.549Z,101295.22
2022-09-21T09:20:42.914Z,101290.00
2022-09-21T09:25:44.885Z,101237.56
2022-09-21T09:30:44.699Z,101244.81
2022-09-21T09:36:07.646Z,101216.84
2022-09-21T09:41:18.641Z,101273.88
2022-09-21T09:46:32.696Z,101244.81
2022-09-21T10:35:15.773Z,101133.56
2022-09-21T10:40:35.944Z,101192.03
2022-09-21T10:45:56.161Z,101213.47
2022-09-21T10:51:05.156Z,101165.38
2022-09-21T10:56:28.667Z,101240.31
2022-09-21T11:01:28.958Z,101225.34
2022-09-21T11:07:49.002Z,101213.00
2022-09-21T11:12:58.715Z,101130.09
2022-09-21T11:18:19.315Z,101207.47
2022-09-21T11:23:28.279Z,101097.94
2022-09-21T11:28:35.711Z,101146.44
2022-09-21T11:33:46.326Z,101106.56
2022-09-21T11:38:56.508Z,101104.81
2022-09-21T11:44:19.750Z,101139.34
2022-09-21T11:50:33.905Z,101099.69
2022-09-21T11:55:31.073Z,101141.75
2022-09-21T12:01:09.664Z,101036.56
2022-09-21T12:06:25.423Z,101119.00
2022-09-21T12:12:01.205Z,101175.94
2022-09-21T12:17:16.006Z,101146.88
2022-09-21T12:22:45.006Z,101171.50
2022-09-21T12:27:46.406Z,101106.34
2022-09-21T12:33:05.274Z,101104.84
2022-09-21T12:38:12.839Z,101130.69
2022-09-21T12:43:23.620Z,101039.75
2022-09-21T12:48:31.235Z,101130.22
2022-09-21T12:53:39.253Z,101094.28
2022-09-21T12:58:57.641Z,101115.56
2022-09-21T13:04:14.346Z,101064.75
2022-09-21T13:09:15.161Z,101067.56
2022-09-21T13:14:20.675Z,101164.50
2022-09-21T13:19:23.652Z,101034.00
2022-09-21T13:24:28.913Z,101084.13
2022-09-21T13:29:49.165Z,101137.69
2022-09-21T13:35:27.477Z,101030.97
2022-09-21T13:40:49.313Z,101150.63
2022-09-21T13:45:56.271Z,101160.72
2022-09-21T13:51:27.086Z,101053.91
2022-09-21T13:56:58.999Z,101121.00
2022-09-21T14:02:12.858Z,101065.41
2022-09-21T14:07:10.461Z,101126.25
2022-09-21T14:12:25.104Z,101139.91
2022-09-21T14:18:25.296Z,101053.38
2022-09-21T14:23:38.210Z,101061.06
2022-09-21T14:29:00.236Z,101115.34
2022-09-21T14:34:04.448Z,101050.03
2022-09-21T14:39:09.988Z,101165.47
2022-09-21T14:44:39.686Z,101089.84
2022-09-21T14:56:41.301Z,101125.59
2022-09-21T15:02:30.780Z,101091.69
2022-09-21T15:07:57.862Z,101114.34
2022-09-21T15:19:08.378Z,101176.16
2022-09-21T15:30:22.283Z,101181.22
2022-09-21T15:35:54.092Z,101025.13
2022-09-21T15:41:22.798Z,101152.47
2022-09-21T15:46:28.391Z,101183.56
2022-09-21T15:51:39.213Z,101140.50
2022-09-21T15:56:40.730Z,101068.94
2022-09-21T16:01:44.856Z,101081.34
2022-09-21T16:07:00.597Z,101197.03
2022-09-21T16:12:43.484Z,101211.59
2022-09-21T16:17:58.169Z,101169.94
2022-09-21T16:23:13.972Z,101104.66
2022-09-21T16:28:49.030Z,101146.22
2022-09-21T16:33:59.407Z,101223.31
2022-09-21T16:38:59.498Z,101237.16
2022-09-21T16:44:00.194Z,101122.84
2022-09-21T16:49:04.119Z,101250.16
2022-09-21T16:54:24.495Z,101254.78
2022-09-21T17:00:22.712Z,101132.53
2022-09-21T17:05:21.054Z,101306.41
2022-09-21T17:11:24.078Z,101288.97
2022-09-21T17:16:45.654Z,101195.13
2022-09-21T17:21:51.124Z,101221.06
2022-09-21T17:26:50.422Z,101208.59
2022-09-21T17:32:54.270Z,101163.88
2022-09-21T17:38:00.033Z,101285.13
2022-09-21T17:43:30.007Z,101255.66
2022-09-21T17:48:33.781Z,101284.91
2022-09-21T17:54:05.599Z,101311.63
2022-09-21T17:59:33.185Z,101228.22
2022-09-21T18:04:36.726Z,101181.78
2022-09-21T18:09:35.613Z,101178.34
2022-09-21T18:15:26.182Z,101320.81
2022-09-21T18:20:38.794Z,101301.13
2022-09-21T18:25:46.976Z,101303.53
2022-09-21T18:30:56.211Z,101284.47
2022-09-21T18:36:08.659Z,101316.72
2022-09-21T18:41:33.907Z,101359.59
2022-09-21T18:46:39.646Z,101230.19
2022-09-21T18:51:47.154Z,101315.16
2022-09-21T18:56:45.133Z,101315.47
2022-09-21T19:01:47.928Z,101352.78
2022-09-21T19:06:49.435Z,101276.63
2022-09-21T19:11:57.133Z,101349.59
2022-09-21T19:17:10.726Z,101316.66
2022-09-21T19:22:14.562Z,101235.09
2022-09-21T19:27:43.621Z,101286.09
2022-09-21T19:32:49.108Z,101336.19
2022-09-21T19:37:48.305Z,101199.06
2022-09-21T19:43:20.333Z,101190.16
2022-09-21T19:48:52.440Z,101264.00
2022-09-21T19:54:13.731Z,101287.91
2022-09-21T19:59:31.742Z,101278.66
2022-09-21T20:04:42.894Z,101299.28
2022-09-21T20:09:53.414Z,101294.16
2022-09-21T20:15:15.918Z,101331.34
2022-09-21T20:20:29.566Z,101225.50
2022-09-21T20:25:46.007Z,101291.09
2022-09-21T20:30:56.762Z,101278.88
2022-09-21T20:35:59.567Z,101220.00
2022-09-21T20:40:59.879Z,101279.09
2022-09-21T20:46:11.481Z,101169.44
2022-09-21T20:51:10.914Z,101250.72
2022-09-21T20:56:08.498Z,101313.06
2022-09-21T21:01:09.340Z,101343.47
2022-09-21T21:06:20.411Z,101240.72
2022-09-21T21:11:19.851Z,101336.13
2022-09-21T21:16:20.203Z,101335.63
2022-09-21T21:21:17.561Z,101280.47
2022-09-21T21:26:14.718Z,101249.31
2022-09-21T21:31:12.216Z,101335.19
2022-09-21T21:36:14.529Z,101290.56
2022-09-21T21:41:32.236Z,101262.19
2022-09-21T21:46:30.028Z,101319.34
2022-09-21T21:51:30.953Z,101247.31
2022-09-21T21:56:31.080Z,101304.59
2022-09-21T22:01:32.373Z,101259.34
2022-09-21T22:06:44.311Z,101307.13
2022-09-21T22:12:04.580Z,101194.41
2022-09-21T22:17:02.057Z,101282.28
2022-09-21T22:22:00.118Z,101222.84
2022-09-21T22:26:57.721Z,101194.19
2022-09-21T22:31:55.031Z,101241.22
2022-09-21T22:36:52.361Z,101278.34
2022-09-21T22:41:50.581Z,101286.31
2022-09-21T22:46:50.568Z,101342.41
2022-09-21T22:51:57.282Z,101342.22
2022-09-21T22:56:55.441Z,101320.63
2022-09-21T23:01:52.609Z,101326.25
2022-09-21T23:06:55.136Z,101318.50
2022-09-21T23:11:55.445Z,101343.06
2022-09-21T23:16:52.870Z,101210.94
2022-09-21T23:21:59.648Z,101283.13
2022-09-21T23:26:57.621Z,101300.44
2022-09-21T23:31:54.689Z,101239.50
2022-09-21T23:36:51.705Z,101297.16
2022-09-21T23:41:48.608Z,101299.50
2022-09-21T23:46:46.857Z,101255.81
2022-09-21T23:51:43.877Z,101333.72
2022-09-21T23:56:41.445Z,101340.16
